createdAt,value
2022-11-22T00:01:23.560Z,36.68
2022-11-22T00:06:30.735Z,36.51
2022-11-22T00:11:37.956Z,36.64
2022-11-22T00:16:45.268Z,36.46
2022-11-22T00:21:52.400Z,36.49
2022-11-22T00:26:59.555Z,36.55
2022-11-22T00:32:06.765Z,36.74
2022-11-22T00:37:13.948Z,36.69
2022-11-22T00:42:21.151Z,36.94
2022-11-22T00:47:28.386Z,37.00
2022-11-22T00:52:35.578Z,37.10
2022-11-22T00:57:42.784Z,37.21
2022-11-22T01:02:50.083Z,37.30
2022-11-22T01:07:57.305Z,37.38
2022-11-22T01:13:04.489Z,37.51
2022-11-22T01:18:11.780Z,37.55
2022-11-22T01:23:18.932Z,37.72
2022-11-22T01:28:26.100Z,37.84
2022-11-22T01:33:33.350Z,37.96
2022-11-22T01:38:40.521Z,38.06
2022-11-22T01:43:47.712Z,38.12
2022-11-22T01:48:54.941Z,38.21
2022-11-22T01:54:02.140Z,38.26
2022-11-22T01:59:09.380Z,38.32
2022-11-22T02:04:16.556Z,38.29
2022-11-22T02:09:23.742Z,38.34
2022-11-22T02:14:30.944Z,38.40
2022-11-22T02:19:38.171Z,38.50
2022-11-22T02:24:45.306Z,38.46
2022-11-22T02:29:52.559Z,38.48
2022-11-22T02:34:59.795Z,38.51
2022-11-22T02:40:06.918Z,38.48
2022-11-22T02:45:14.086Z,38.49
2022-11-22T02:50:21.301Z,38.50
2022-11-22T02:55:28.484Z,38.34
2022-11-22T03:00:35.827Z,38.48
2022-11-22T03:05:42.955Z,38.48
2022-11-22T03:10:50.095Z,38.51
2022-11-22T03:15:57.254Z,38.54
2022-11-22T03:21:04.428Z,38.55
2022-11-22T03:26:11.575Z,38.61
2022-11-22T03:31:18.722Z,38.60
2022-11-22T03:36:25.936Z,38.64
2022-11-22T03:41:33.163Z,38.64
2022-11-22T03:46:40.309Z,38.73
2022-11-22T03:51:47.553Z,38.72
2022-11-22T03:56:54.732Z,38.77
2022-11-22T04:02:02.049Z,38.73
2022-11-22T04:07:09.283Z,38.72
2022-11-22T04:12:16.452Z,38.78
2022-11-22T04:17:23.676Z,38.78
2022-11-22T04:22:30.880Z,38.76
2022-11-22T04:27:38.060Z,38.70
2022-11-22T04:32:45.279Z,38.73
2022-11-22T04:37:52.504Z,38.72
2022-11-22T04:42:59.646Z,38.70
2022-11-22T04:48:06.876Z,38.67
2022-11-22T04:53:14.111Z,38.66
2022-11-22T04:58:21.263Z,38.64
2022-11-22T05:03:28.493Z,38.63
2022-11-22T05:08:35.774Z,38.64
2022-11-22T05:13:42.940Z,38.65
2022-11-22T05:18:50.192Z,38.64
2022-11-22T05:23:57.399Z,38.70
2022-11-22T05:29:04.614Z,38.74
2022-11-22T05:34:11.823Z,38.74
2022-11-22T05:39:19.090Z,38.77
2022-11-22T05:44:26.226Z,38.74
2022-11-22T05:49:33.555Z,38.73
2022-11-22T05:54:40.661Z,38.73
2022-11-22T05:59:47.843Z,38.74
2022-11-22T06:04:55.055Z,38.76
2022-11-22T06:10:02.324Z,38.76
2022-11-22T06:15:09.482Z,38.74
2022-11-22T06:20:16.654Z,38.84
2022-11-22T06:25:23.903Z,38.86
2022-11-22T06:30:31.071Z,38.83
2022-11-22T06:35:38.276Z,38.80
2022-11-22T06:40:45.516Z,38.75
2022-11-22T06:45:52.729Z,38.75
2022-11-22T06:50:59.903Z,38.72
2022-11-22T06:56:07.151Z,38.73
2022-11-22T07:01:14.425Z,38.74
2022-11-22T07:06:21.529Z,38.80
2022-11-22T07:11:28.784Z,38.78
2022-11-22T07:16:36.030Z,39.06
2022-11-22T07:21:43.250Z,39.31
2022-11-22T07:26:50.460Z,39.12
2022-11-22T07:31:57.643Z,39.09
2022-11-22T07:37:08.866Z,39.02
2022-11-22T07:42:12.016Z,38.97
2022-11-22T07:47:23.177Z,38.95
2022-11-22T07:52:29.756Z,38.87
2022-11-22T07:57:38.994Z,38.88
2022-11-22T08:02:46.087Z,38.88
2022-11-22T08:07:53.512Z,38.85
2022-11-22T08:13:00.633Z,38.86
2022-11-22T08:18:07.725Z,38.82
2022-11-22T08:23:14.918Z,38.84
2022-11-22T08:28:22.297Z,38.86
2022-11-22T08:33:29.427Z,38.95
2022-11-22T08:38:36.639Z,38.90
2022-11-22T08:43:44.020Z,38.86
2022-11-22T08:48:51.144Z,38.77
2022-11-22T08:53:58.331Z,38.70
2022-11-22T08:59:06.325Z,38.64
2022-11-22T09:04:13.591Z,38.61
2022-11-22T09:09:37.644Z,38.62
2022-11-22T09:14:28.165Z,38.59
2022-11-22T09:19:46.250Z,38.57
2022-11-22T09:25:08.398Z,38.59
2022-11-22T09:30:16.048Z,38.59
2022-11-22T09:35:23.128Z,38.57
2022-11-22T09:40:30.318Z,38.57
2022-11-22T09:45:37.645Z,38.59
2022-11-22T09:50:44.839Z,38.59
2022-11-22T09:55:52.043Z,38.60
2022-11-22T10:00:59.443Z,38.60
2022-11-22T10:06:06.744Z,38.60
2022-11-22T10:11:13.969Z,38.60
2022-11-22T10:16:21.312Z,38.64
2022-11-22T10:21:28.360Z,38.61
2022-11-22T10:26:35.575Z,38.54
2022-11-22T10:31:42.884Z,38.48
2022-11-22T10:36:49.989Z,38.46
2022-11-22T10:41:57.156Z,38.43
2022-11-22T10:47:04.543Z,38.39
2022-11-22T10:52:11.644Z,38.41
2022-11-22T10:57:18.790Z,38.41
2022-11-22T11:02:26.135Z,38.41
2022-11-22T11:07:33.260Z,38.43
2022-11-22T11:12:40.395Z,38.44
2022-11-22T11:17:47.722Z,38.45
2022-11-22T11:28:02.008Z,38.56
2022-11-22T11:33:09.353Z,38.61
2022-11-22T11:38:16.427Z,38.66
2022-11-22T11:43:23.656Z,38.70
2022-11-22T11:48:30.971Z,38.77
2022-11-22T11:53:38.048Z,38.83
2022-11-22T11:58:45.324Z,38.70
2022-11-22T12:03:52.707Z,38.60
2022-11-22T12:08:59.790Z,38.56
2022-11-22T12:14:22.497Z,38.54
2022-11-22T12:19:14.434Z,38.54
2022-11-22T12:29:28.687Z,38.61
2022-11-22T12:34:36.024Z,38.70
2022-11-22T12:39:43.161Z,38.71
2022-11-22T12:44:50.332Z,38.80
2022-11-22T12:49:57.617Z,38.89
2022-11-22T12:55:04.708Z,38.87
2022-11-22T13:00:11.869Z,38.98
2022-11-22T13:05:19.177Z,39.05
2022-11-22T13:10:26.184Z,39.07
2022-11-22T13:15:33.420Z,39.11
2022-11-22T13:20:43.246Z,39.16
2022-11-22T13:25:47.835Z,39.23
2022-11-22T13:30:54.999Z,39.28
2022-11-22T13:36:02.369Z,39.30
2022-11-22T13:41:09.453Z,39.29
2022-11-22T13:46:16.652Z,39.25
2022-11-22T13:51:24.399Z,39.22
2022-11-22T13:56:31.588Z,39.17
2022-11-22T14:01:38.903Z,39.17
2022-11-22T14:06:46.172Z,39.09
2022-11-22T14:11:53.329Z,39.14
2022-11-22T14:17:00.512Z,39.17
2022-11-22T14:22:07.821Z,39.18
2022-11-22T14:27:15.952Z,39.18
2022-11-22T14:32:23.171Z,39.22
2022-11-22T14:37:30.663Z,39.26
2022-11-22T14:42:37.773Z,39.27
2022-11-22T14:47:44.939Z,39.36
2022-11-22T14:52:52.231Z,39.40
2022-11-22T14:57:59.270Z,39.48
2022-11-22T15:03:06.482Z,39.50
2022-11-22T15:09:10.444Z,39.58
2022-11-22T15:13:20.948Z,39.61
2022-11-22T15:59:26.057Z,39.48
2022-11-22T16:04:33.393Z,39.48
2022-11-22T16:09:40.474Z,39.56
2022-11-22T16:14:48.035Z,39.55
2022-11-22T16:19:55.360Z,39.63
2022-11-22T16:25:06.193Z,39.64
2022-11-22T16:30:09.958Z,39.69
2022-11-22T16:35:29.052Z,39.70
2022-11-22T16:40:25.834Z,39.79
2022-11-22T16:45:33.115Z,39.80
2022-11-22T16:50:40.525Z,39.83
2022-11-22T16:55:48.159Z,39.86
2022-11-22T17:00:55.485Z,39.95
2022-11-22T17:06:02.846Z,39.99
2022-11-22T17:11:11.627Z,40.18
2022-11-22T17:16:18.750Z,40.47
2022-11-22T17:21:26.323Z,40.34
2022-11-22T17:26:34.157Z,40.40
2022-11-22T17:31:41.736Z,39.96
2022-11-22T17:36:49.065Z,39.67
2022-11-22T17:41:56.785Z,39.54
2022-11-22T17:47:04.380Z,39.44
2022-11-22T17:52:13.221Z,39.31
2022-11-22T17:57:20.764Z,39.28
2022-11-22T18:02:28.250Z,39.09
2022-11-22T18:07:35.603Z,38.98
2022-11-22T18:12:58.599Z,38.89
2022-11-22T18:17:50.218Z,38.76
2022-11-22T18:22:57.885Z,38.77
2022-11-22T18:28:05.520Z,38.81
2022-11-22T18:33:13.108Z,38.69
2022-11-22T18:38:20.450Z,38.64
2022-11-22T18:43:28.052Z,38.50
2022-11-22T18:48:35.544Z,38.88
2022-11-22T18:53:43.272Z,38.64
2022-11-22T18:58:51.294Z,38.56
2022-11-22T19:03:59.017Z,38.48
2022-11-22T19:09:06.828Z,38.38
2022-11-22T19:14:14.567Z,38.28
2022-11-22T19:19:22.628Z,38.25
2022-11-22T19:24:30.985Z,38.21
2022-11-22T19:29:38.519Z,38.18
2022-11-22T19:34:46.329Z,38.09
2022-11-22T19:39:54.667Z,38.04
2022-11-22T19:45:02.514Z,38.02
2022-11-22T19:50:09.989Z,37.97
2022-11-22T19:55:17.603Z,37.93
2022-11-22T20:00:25.338Z,37.89
2022-11-22T20:05:33.349Z,38.41
2022-11-22T20:10:40.510Z,38.36
2022-11-22T20:15:48.148Z,38.72
2022-11-22T20:20:55.786Z,38.94
2022-11-22T20:26:03.653Z,38.88
2022-11-22T20:31:11.534Z,39.18
2022-11-22T20:36:19.144Z,39.06
2022-11-22T20:41:26.856Z,39.12
2022-11-22T20:46:34.284Z,39.05
2022-11-22T20:51:41.669Z,38.93
2022-11-22T20:56:49.284Z,38.73
2022-11-22T21:01:57.021Z,38.51
2022-11-22T21:07:04.329Z,38.23
2022-11-22T21:12:12.323Z,38.09
2022-11-22T21:17:39.677Z,37.86
2022-11-22T21:22:31.477Z,37.96
2022-11-22T21:27:34.254Z,37.89
2022-11-22T21:32:41.524Z,37.84
2022-11-22T21:37:48.691Z,37.97
2022-11-22T21:42:56.094Z,37.99
2022-11-22T21:48:03.513Z,37.77
2022-11-22T21:53:10.582Z,37.58
2022-11-22T21:58:17.788Z,37.67
2022-11-22T22:03:25.163Z,37.70
2022-11-22T22:08:32.364Z,37.63
2022-11-22T22:13:39.540Z,37.54
2022-11-22T22:18:46.871Z,37.38
2022-11-22T22:23:53.936Z,37.49
2022-11-22T22:29:01.163Z,37.44
2022-11-22T22:34:08.565Z,37.43
2022-11-22T22:39:15.742Z,37.45
2022-11-22T22:44:22.963Z,37.44
2022-11-22T22:49:30.707Z,37.46
2022-11-22T22:54:37.360Z,37.42
2022-11-22T22:59:44.578Z,37.41
2022-11-22T23:04:51.828Z,37.60
2022-11-22T23:09:58.899Z,37.59
2022-11-22T23:15:06.104Z,37.44
2022-11-22T23:20:13.394Z,37.70
2022-11-22T23:25:20.472Z,37.58
2022-11-22T23:30:27.714Z,37.54
2022-11-22T23:35:35.011Z,37.43
2022-11-22T23:40:42.090Z,37.28
2022-11-22T23:45:49.295Z,37.25
2022-11-22T23:50:56.664Z,37.19
2022-11-22T23:56:03.711Z,36.89
